createdAt,value
2022-10-02T00:02:25.039Z,12.74
2022-10-02T00:05:00.337Z,12.73
2022-10-02T00:07:34.863Z,12.75
2022-10-02T00:10:10.754Z,12.75
2022-10-02T00:12:37.392Z,12.75
2022-10-02T00:15:14.898Z,12.74
2022-10-02T00:17:46.793Z,12.73
2022-10-02T00:20:16.999Z,12.71
2022-10-02T00:22:53.780Z,12.70
2022-10-02T00:25:35.380Z,12.70
2022-10-02T00:28:04.053Z,12.66
2022-10-02T00:30:36.773Z,12.60
2022-10-02T00:33:18.391Z,12.59
2022-10-02T00:36:18.119Z,12.62
2022-10-02T00:39:00.515Z,12.66
2022-10-02T00:41:52.682Z,12.70
2022-10-02T00:44:37.605Z,12.73
2022-10-02T00:47:17.038Z,12.77
2022-10-02T00:49:53.839Z,12.80
2022-10-02T00:52:38.305Z,12.81
2022-10-02T00:55:16.883Z,12.82
2022-10-02T00:58:04.664Z,12.81
2022-10-02T01:00:31.970Z,12.81
2022-10-02T01:03:18.661Z,12.79
2022-10-02T01:05:45.408Z,12.75
2022-10-02T01:08:12.950Z,12.74
2022-10-02T01:10:40.005Z,12.72
2022-10-02T01:13:07.614Z,12.72
2022-10-02T01:15:38.471Z,12.71
2022-10-02T01:18:07.156Z,12.69
2022-10-02T01:20:45.467Z,12.67
2022-10-02T01:23:41.060Z,12.66
2022-10-02T01:26:07.837Z,12.63
2022-10-02T01:28:34.474Z,12.61
2022-10-02T01:31:07.734Z,12.58
2022-10-02T01:33:35.126Z,12.56
2022-10-02T01:36:02.146Z,12.54
2022-10-02T01:38:30.325Z,12.55
2022-10-02T01:40:56.762Z,12.54
2022-10-02T01:43:28.580Z,12.53
2022-10-02T01:46:21.799Z,12.55
2022-10-02T01:49:26.657Z,12.51
2022-10-02T01:52:48.066Z,12.51
2022-10-02T01:55:28.666Z,12.49
2022-10-02T01:58:02.558Z,12.47
2022-10-02T02:00:43.350Z,12.46
2022-10-02T02:03:24.104Z,12.46
2022-10-02T02:05:56.428Z,12.45
2022-10-02T02:08:30.986Z,12.43
2022-10-02T02:11:10.307Z,12.42
2022-10-02T02:13:54.499Z,12.42
2022-10-02T02:16:36.349Z,12.43
2022-10-02T02:19:07.407Z,12.42
2022-10-02T02:21:40.326Z,12.44
2022-10-02T02:24:14.340Z,12.42
2022-10-02T02:26:43.944Z,12.44
2022-10-02T02:29:13.553Z,12.44
2022-10-02T02:31:49.105Z,12.43
2022-10-02T02:34:21.629Z,12.42
2022-10-02T02:36:52.624Z,12.41
2022-10-02T02:39:28.978Z,12.39
2022-10-02T02:42:01.675Z,12.39
2022-10-02T02:44:52.440Z,12.38
2022-10-02T02:47:32.800Z,12.37
2022-10-02T02:50:05.494Z,12.38
2022-10-02T02:52:41.763Z,12.38
2022-10-02T02:55:15.312Z,12.38
2022-10-02T02:57:55.546Z,12.38
2022-10-02T03:00:23.146Z,12.39
2022-10-02T03:02:50.628Z,12.40
2022-10-02T03:05:18.963Z,12.41
2022-10-02T03:07:53.511Z,12.40
2022-10-02T03:10:51.595Z,12.40
2022-10-02T03:13:45.199Z,12.40
2022-10-02T03:16:42.912Z,12.41
2022-10-02T03:19:41.162Z,12.41
2022-10-02T03:22:45.250Z,12.40
2022-10-02T03:25:50.569Z,12.40
2022-10-02T03:28:43.536Z,12.38
2022-10-02T03:31:12.631Z,12.36
2022-10-02T03:33:40.101Z,12.34
2022-10-02T03:36:06.883Z,12.35
2022-10-02T03:38:34.011Z,12.32
2022-10-02T03:41:00.521Z,12.32
2022-10-02T03:43:29.342Z,12.32
2022-10-02T03:45:56.921Z,12.31
2022-10-02T03:48:23.480Z,12.31
2022-10-02T03:50:53.156Z,12.31
2022-10-02T03:53:24.515Z,12.33
2022-10-02T03:56:13.690Z,12.33
2022-10-02T03:58:45.921Z,12.35
2022-10-02T04:01:18.302Z,12.35
2022-10-02T04:03:52.815Z,12.37
2022-10-02T04:06:24.827Z,12.35
2022-10-02T04:08:58.246Z,12.34
2022-10-02T04:11:33.455Z,12.33
2022-10-02T04:14:07.564Z,12.32
2022-10-02T04:16:40.767Z,12.30
2022-10-02T04:19:17.846Z,12.28
2022-10-02T04:21:55.856Z,12.24
2022-10-02T04:24:33.772Z,12.24
2022-10-02T04:27:07.885Z,12.23
2022-10-02T04:29:43.581Z,12.22
2022-10-02T04:32:30.989Z,12.21
2022-10-02T04:34:59.092Z,12.19
2022-10-02T04:37:48.356Z,12.17
2022-10-02T04:40:27.951Z,12.15
2022-10-02T04:43:14.253Z,12.13
2022-10-02T04:45:40.793Z,12.11
2022-10-02T04:48:33.320Z,12.09
2022-10-02T04:51:23.733Z,12.08
2022-10-02T04:54:08.500Z,12.04
2022-10-02T04:57:03.212Z,12.03
2022-10-02T04:59:44.228Z,12.01
2022-10-02T05:02:44.735Z,11.99
2022-10-02T05:06:02.355Z,11.96
2022-10-02T05:08:43.527Z,11.93
2022-10-02T05:11:12.976Z,11.93
2022-10-02T05:14:01.947Z,11.92
2022-10-02T05:17:05.859Z,11.91
2022-10-02T05:20:12.733Z,11.93
2022-10-02T05:23:21.448Z,11.92
2022-10-02T05:26:20.182Z,11.93
2022-10-02T05:29:17.975Z,11.94
2022-10-02T05:32:15.911Z,11.97
2022-10-02T05:34:50.273Z,11.98
2022-10-02T05:37:26.753Z,12.00
2022-10-02T05:40:10.964Z,12.03
2022-10-02T05:42:46.746Z,12.03
2022-10-02T05:45:36.529Z,12.05
2022-10-02T05:48:12.485Z,12.07
2022-10-02T05:50:41.588Z,12.06
2022-10-02T05:53:34.000Z,12.08
2022-10-02T05:56:09.546Z,12.08
2022-10-02T05:58:48.245Z,12.08
2022-10-02T06:01:28.772Z,12.05
2022-10-02T06:04:07.992Z,12.07
2022-10-02T06:06:54.434Z,12.06
2022-10-02T06:09:26.897Z,12.06
2022-10-02T06:12:04.787Z,12.05
2022-10-02T06:14:36.947Z,12.07
2022-10-02T06:17:19.793Z,12.06
2022-10-02T06:20:03.516Z,12.07
2022-10-02T06:22:42.099Z,12.07
2022-10-02T06:25:33.985Z,12.06
2022-10-02T06:28:17.598Z,12.07
2022-10-02T06:30:49.811Z,12.08
2022-10-02T06:33:24.937Z,12.09
2022-10-02T06:36:42.864Z,12.11
2022-10-02T06:39:36.859Z,12.11
2022-10-02T06:42:15.569Z,12.12
2022-10-02T06:44:55.017Z,12.13
2022-10-02T06:47:57.520Z,12.15
2022-10-02T06:50:42.214Z,12.18
2022-10-02T06:53:28.392Z,12.19
2022-10-02T06:56:22.559Z,12.22
2022-10-02T06:59:06.718Z,12.21
2022-10-02T07:01:46.839Z,12.26
2022-10-02T07:04:58.125Z,12.27
2022-10-02T07:07:41.112Z,12.31
2022-10-02T07:10:17.223Z,12.33
2022-10-02T07:13:18.061Z,12.36
2022-10-02T07:16:09.236Z,12.38
2022-10-02T07:19:01.344Z,12.42
2022-10-02T07:22:32.365Z,12.44
2022-10-02T07:25:45.666Z,12.47
2022-10-02T07:28:30.804Z,12.50
2022-10-02T07:31:11.434Z,12.52
2022-10-02T07:34:02.437Z,12.55
2022-10-02T07:36:53.542Z,12.58
2022-10-02T07:39:58.259Z,12.61
2022-10-02T07:42:50.951Z,12.64
2022-10-02T07:45:34.757Z,12.67
2022-10-02T07:48:07.136Z,12.70
2022-10-02T07:51:04.082Z,12.75
2022-10-02T07:53:49.784Z,12.79
2022-10-02T07:56:20.904Z,12.83
2022-10-02T07:58:53.983Z,12.87
2022-10-02T08:01:25.012Z,12.93
2022-10-02T08:04:02.272Z,12.99
2022-10-02T08:06:29.162Z,13.03
2022-10-02T08:09:02.789Z,13.10
2022-10-02T08:11:33.116Z,13.14
2022-10-02T08:14:08.853Z,13.20
2022-10-02T08:16:43.058Z,13.27
2022-10-02T08:19:16.920Z,13.31
2022-10-02T08:21:48.747Z,13.36
2022-10-02T08:24:24.456Z,13.42
2022-10-02T08:27:09.298Z,13.45
2022-10-02T08:29:48.771Z,13.48
2022-10-02T08:32:15.424Z,13.53
2022-10-02T08:34:43.708Z,13.58
2022-10-02T08:37:43.290Z,13.62
2022-10-02T08:40:30.564Z,13.66
2022-10-02T08:43:29.718Z,13.74
2022-10-02T08:46:22.112Z,13.80
2022-10-02T08:49:20.089Z,13.87
2022-10-02T08:52:18.129Z,13.95
2022-10-02T08:55:10.427Z,14.03
2022-10-02T08:57:49.653Z,14.09
2022-10-02T09:00:27.297Z,14.14
2022-10-02T09:03:09.123Z,14.20
2022-10-02T09:06:16.812Z,14.28
2022-10-02T09:09:29.029Z,14.35
2022-10-02T09:12:23.404Z,14.41
2022-10-02T09:14:58.027Z,14.52
2022-10-02T09:18:02.209Z,14.64
2022-10-02T09:20:51.063Z,14.74
2022-10-02T09:23:37.535Z,14.82
2022-10-02T09:26:17.776Z,14.87
2022-10-02T09:29:06.381Z,14.90
2022-10-02T09:32:24.773Z,14.94
2022-10-02T09:35:06.895Z,14.96
2022-10-02T09:37:44.099Z,14.96
2022-10-02T09:40:34.596Z,14.97
2022-10-02T09:43:40.655Z,14.96
2022-10-02T09:46:44.681Z,14.97
2022-10-02T09:49:25.533Z,15.01
2022-10-02T09:52:17.280Z,15.04
2022-10-02T09:55:13.967Z,15.12
2022-10-02T09:58:17.695Z,15.22
2022-10-02T10:01:17.126Z,15.34
2022-10-02T10:04:09.061Z,15.43
2022-10-02T10:06:54.595Z,15.53
2022-10-02T10:09:58.578Z,15.60
2022-10-02T10:13:01.523Z,15.67
2022-10-02T10:15:49.416Z,15.70
2022-10-02T10:18:53.122Z,15.77
2022-10-02T10:21:48.649Z,15.84
2022-10-02T10:24:36.754Z,15.87
2022-10-02T10:27:21.894Z,15.91
2022-10-02T10:29:57.360Z,15.99
2022-10-02T10:32:44.880Z,16.01
2022-10-02T10:35:58.972Z,16.10
2022-10-02T10:38:50.877Z,16.19
2022-10-02T10:41:50.998Z,16.29
2022-10-02T10:44:43.088Z,16.35
2022-10-02T10:47:47.654Z,16.36
2022-10-02T10:50:49.519Z,16.39
2022-10-02T10:54:06.308Z,16.44
2022-10-02T10:56:44.652Z,16.47
2022-10-02T10:59:54.891Z,16.52
2022-10-02T11:02:59.394Z,16.54
2022-10-02T11:06:03.562Z,16.41
2022-10-02T11:09:00.926Z,16.28
2022-10-02T11:11:58.314Z,16.22
2022-10-02T11:15:02.740Z,16.16
2022-10-02T11:17:44.348Z,16.06
2022-10-02T11:20:35.286Z,16.07
2022-10-02T11:23:46.823Z,16.06
2022-10-02T11:26:43.829Z,16.05
2022-10-02T11:29:34.183Z,16.11
2022-10-02T11:32:27.076Z,16.26
2022-10-02T11:35:11.969Z,16.36
2022-10-02T11:38:20.268Z,16.46
2022-10-02T11:41:00.364Z,16.47
2022-10-02T11:44:03.047Z,16.47
2022-10-02T11:47:13.915Z,16.48
2022-10-02T11:50:18.392Z,16.42
2022-10-02T11:53:14.414Z,16.39
2022-10-02T11:56:05.740Z,16.41
2022-10-02T11:58:56.914Z,16.42
2022-10-02T12:01:41.237Z,16.47
2022-10-02T12:04:32.624Z,16.48
2022-10-02T12:07:24.116Z,16.46
2022-10-02T12:10:36.580Z,16.48
2022-10-02T12:13:28.604Z,16.49
2022-10-02T12:16:35.431Z,16.56
2022-10-02T12:20:09.293Z,16.70
2022-10-02T12:23:05.726Z,16.78
2022-10-02T12:26:04.660Z,16.83
2022-10-02T12:28:56.125Z,16.77
2022-10-02T12:31:51.705Z,16.67
2022-10-02T12:34:55.255Z,16.61
2022-10-02T12:37:53.900Z,16.49
2022-10-02T12:40:30.364Z,16.43
2022-10-02T12:43:40.431Z,16.46
2022-10-02T12:46:45.344Z,16.42
2022-10-02T12:49:34.024Z,16.43
2022-10-02T12:52:32.669Z,16.49
2022-10-02T12:55:36.704Z,16.59
2022-10-02T12:58:23.699Z,16.67
2022-10-02T13:01:30.839Z,16.70
2022-10-02T13:04:00.112Z,16.66
2022-10-02T13:06:46.570Z,16.67
2022-10-02T13:09:52.296Z,16.65
2022-10-02T13:12:35.017Z,16.62
2022-10-02T13:15:40.669Z,16.62
2022-10-02T13:18:20.439Z,16.62
2022-10-02T13:21:23.747Z,16.67
2022-10-02T13:24:14.630Z,16.75
2022-10-02T13:27:10.574Z,16.90
2022-10-02T13:30:15.267Z,17.00
2022-10-02T13:33:10.200Z,17.08
2022-10-02T13:35:49.315Z,17.17
2022-10-02T13:39:06.528Z,17.13
2022-10-02T13:41:51.238Z,17.00
2022-10-02T13:44:25.289Z,16.95
2022-10-02T13:47:00.075Z,16.86
2022-10-02T13:50:17.408Z,16.83
2022-10-02T13:53:04.428Z,16.78
2022-10-02T13:55:39.307Z,16.71
2022-10-02T13:58:36.891Z,16.73
2022-10-02T14:02:00.217Z,16.86
2022-10-02T14:04:34.959Z,16.96
2022-10-02T14:07:21.693Z,16.99
2022-10-02T14:10:11.568Z,17.04
2022-10-02T14:12:47.540Z,17.12
2022-10-02T14:15:31.071Z,17.11
2022-10-02T14:18:28.453Z,17.20
2022-10-02T14:21:24.118Z,17.18
2022-10-02T14:24:10.991Z,17.24
2022-10-02T14:27:12.571Z,17.29
2022-10-02T14:29:53.667Z,17.27
2022-10-02T14:32:39.078Z,17.31
2022-10-02T14:35:30.181Z,17.33
2022-10-02T14:38:13.498Z,17.37
2022-10-02T14:40:55.939Z,17.45
2022-10-02T14:44:03.358Z,17.43
2022-10-02T14:46:49.518Z,17.44
2022-10-02T14:49:43.928Z,17.48
2022-10-02T14:52:51.603Z,17.48
2022-10-02T14:55:31.622Z,17.47
2022-10-02T14:58:30.265Z,17.43
2022-10-02T15:01:10.567Z,17.27
2022-10-02T15:04:08.275Z,17.16
2022-10-02T15:07:04.973Z,17.09
2022-10-02T15:10:07.371Z,16.95
2022-10-02T15:12:46.861Z,16.86
2022-10-02T15:15:45.306Z,16.75
2022-10-02T15:18:25.086Z,16.64
2022-10-02T15:21:00.561Z,16.56
2022-10-02T15:23:43.756Z,16.47
2022-10-02T15:26:40.502Z,16.39
2022-10-02T15:29:45.367Z,16.31
2022-10-02T15:32:35.429Z,16.27
2022-10-02T15:35:22.216Z,16.23
2022-10-02T15:38:26.155Z,16.25
2022-10-02T15:41:31.610Z,16.23
2022-10-02T15:44:07.059Z,16.24
2022-10-02T15:47:17.858Z,16.24
2022-10-02T15:50:25.250Z,16.20
2022-10-02T15:52:58.617Z,16.18
2022-10-02T15:55:40.209Z,16.14
2022-10-02T15:58:51.937Z,16.10
2022-10-02T16:02:02.747Z,16.10
2022-10-02T16:05:00.705Z,16.07
2022-10-02T16:07:38.484Z,16.05
2022-10-02T16:10:32.053Z,16.02
2022-10-02T16:13:06.478Z,16.01
2022-10-02T16:15:43.968Z,15.98
2022-10-02T16:18:21.722Z,15.95
2022-10-02T16:20:56.754Z,15.91
2022-10-02T16:23:51.141Z,15.90
2022-10-02T16:26:23.528Z,15.86
2022-10-02T16:29:07.320Z,15.83
2022-10-02T16:31:39.464Z,15.81
2022-10-02T16:34:21.921Z,15.75
2022-10-02T16:36:52.661Z,15.72
2022-10-02T16:39:34.203Z,15.69
2022-10-02T16:42:11.936Z,15.68
2022-10-02T16:45:10.739Z,15.66
2022-10-02T16:47:53.150Z,15.61
2022-10-02T16:50:29.507Z,15.57
2022-10-02T16:53:04.684Z,15.52
2022-10-02T16:55:50.906Z,15.48
2022-10-02T16:58:26.199Z,15.44
2022-10-02T17:01:02.107Z,15.40
2022-10-02T17:04:09.298Z,15.34
2022-10-02T17:07:02.768Z,15.30
2022-10-02T17:09:42.160Z,15.25
2022-10-02T17:12:11.216Z,15.17
2022-10-02T17:14:49.121Z,15.12
2022-10-02T17:17:30.899Z,15.07
2022-10-02T17:20:00.093Z,15.01
2022-10-02T17:22:38.019Z,14.95
2022-10-02T17:25:07.158Z,14.89
2022-10-02T17:27:33.659Z,14.84
2022-10-02T17:30:17.387Z,14.77
2022-10-02T17:32:51.327Z,14.74
2022-10-02T17:35:23.834Z,14.69
2022-10-02T17:37:59.082Z,14.65
2022-10-02T17:40:50.948Z,14.58
2022-10-02T17:43:31.249Z,14.50
2022-10-02T17:46:28.459Z,14.46
2022-10-02T17:48:58.766Z,14.40
2022-10-02T17:51:52.339Z,14.33
2022-10-02T17:54:55.913Z,14.25
2022-10-02T17:57:23.032Z,14.22
2022-10-02T18:00:02.984Z,14.17
2022-10-02T18:02:57.933Z,14.14
2022-10-02T18:05:49.118Z,14.12
2022-10-02T18:08:31.967Z,14.09
2022-10-02T18:11:19.584Z,14.05
2022-10-02T18:14:08.911Z,14.00
2022-10-02T18:17:06.445Z,13.95
2022-10-02T18:19:41.958Z,13.90
2022-10-02T18:22:17.563Z,13.85
2022-10-02T18:25:12.529Z,13.80
2022-10-02T18:27:48.026Z,13.76
2022-10-02T18:30:16.858Z,13.75
2022-10-02T18:32:52.752Z,13.72
2022-10-02T18:35:32.204Z,13.68
2022-10-02T18:38:28.065Z,13.66
2022-10-02T18:41:01.362Z,13.63
2022-10-02T18:43:41.743Z,13.56
2022-10-02T18:46:37.841Z,13.54
2022-10-02T18:49:37.468Z,13.51
2022-10-02T18:52:45.604Z,13.46
2022-10-02T18:55:39.790Z,13.42
2022-10-02T18:58:31.811Z,13.40
2022-10-02T19:01:04.177Z,13.35
2022-10-02T19:03:58.509Z,13.35
2022-10-02T19:06:32.800Z,13.33
2022-10-02T19:09:03.158Z,13.28
2022-10-02T19:11:32.630Z,13.24
2022-10-02T19:14:02.304Z,13.21
2022-10-02T19:16:30.525Z,13.17
2022-10-02T19:19:15.392Z,13.12
2022-10-02T19:21:42.165Z,13.08
2022-10-02T19:24:15.369Z,13.02
2022-10-02T19:26:46.939Z,12.98
2022-10-02T19:29:41.861Z,12.95
2022-10-02T19:32:21.288Z,12.92
2022-10-02T19:34:55.623Z,12.91
2022-10-02T19:37:22.970Z,12.87
2022-10-02T19:39:55.258Z,12.82
2022-10-02T19:42:27.981Z,12.80
2022-10-02T19:45:03.258Z,12.77
2022-10-02T19:47:38.914Z,12.72
2022-10-02T19:50:08.026Z,12.70
2022-10-02T19:52:43.530Z,12.65
2022-10-02T19:55:22.230Z,12.59
2022-10-02T19:57:50.398Z,12.56
2022-10-02T20:00:18.859Z,12.54
2022-10-02T20:02:48.532Z,12.54
2022-10-02T20:05:26.602Z,12.53
2022-10-02T20:08:01.873Z,12.53
2022-10-02T20:10:42.734Z,12.51
2022-10-02T20:13:36.928Z,12.50
2022-10-02T20:16:35.105Z,12.48
2022-10-02T20:19:03.596Z,12.45
2022-10-02T20:21:36.202Z,12.42
2022-10-02T20:24:10.465Z,12.40
2022-10-02T20:26:39.766Z,12.36
2022-10-02T20:29:14.549Z,12.34
2022-10-02T20:31:58.251Z,12.31
2022-10-02T20:34:43.905Z,12.25
2022-10-02T20:37:26.284Z,12.20
2022-10-02T20:40:05.713Z,12.18
2022-10-02T20:42:44.553Z,12.11
2022-10-02T20:45:13.185Z,12.08
2022-10-02T20:48:03.701Z,12.05
2022-10-02T20:50:41.967Z,12.03
2022-10-02T20:53:29.715Z,12.00
2022-10-02T20:56:27.043Z,11.97
2022-10-02T20:59:11.864Z,11.93
2022-10-02T21:02:05.266Z,11.91
2022-10-02T21:04:54.481Z,11.87
2022-10-02T21:07:37.797Z,11.84
2022-10-02T21:10:28.853Z,11.80
2022-10-02T21:13:38.401Z,11.75
2022-10-02T21:16:32.694Z,11.70
2022-10-02T21:19:03.690Z,11.65
2022-10-02T21:21:55.864Z,11.63
2022-10-02T21:24:48.820Z,11.60
2022-10-02T21:27:24.110Z,11.61
2022-10-02T21:30:03.619Z,11.58
2022-10-02T21:32:56.059Z,11.57
2022-10-02T21:35:44.379Z,11.55
2022-10-02T21:38:32.464Z,11.51
2022-10-02T21:41:29.700Z,11.46
2022-10-02T21:44:26.120Z,11.45
2022-10-02T21:47:19.022Z,11.42
2022-10-02T21:50:00.844Z,11.41
2022-10-02T21:52:45.829Z,11.37
2022-10-02T21:55:33.851Z,11.33
2022-10-02T21:58:18.607Z,11.29
2022-10-02T22:01:09.830Z,11.27
2022-10-02T22:03:57.613Z,11.24
2022-10-02T22:06:51.268Z,11.23
2022-10-02T22:09:42.055Z,11.22
2022-10-02T22:12:31.805Z,11.21
2022-10-02T22:15:22.925Z,11.19
2022-10-02T22:17:57.997Z,11.17
2022-10-02T22:20:42.993Z,11.14
2022-10-02T22:23:21.370Z,11.12
2022-10-02T22:26:24.632Z,11.09
2022-10-02T22:29:08.991Z,11.07
2022-10-02T22:31:42.968Z,11.06
2022-10-02T22:34:40.776Z,11.06
2022-10-02T22:37:21.031Z,11.04
2022-10-02T22:39:58.688Z,11.03
2022-10-02T22:42:38.377Z,11.01
2022-10-02T22:45:15.645Z,11.01
2022-10-02T22:48:01.080Z,10.99
2022-10-02T22:50:36.217Z,10.97
2022-10-02T22:53:25.246Z,10.93
2022-10-02T22:55:54.676Z,10.91
2022-10-02T22:58:32.455Z,10.90
2022-10-02T23:01:11.707Z,10.87
2022-10-02T23:03:46.769Z,10.85
2022-10-02T23:06:16.011Z,10.82
2022-10-02T23:08:54.373Z,10.83
2022-10-02T23:11:37.099Z,10.78
2022-10-02T23:14:28.987Z,10.76
2022-10-02T23:17:04.257Z,10.78
2022-10-02T23:19:55.676Z,10.77
2022-10-02T23:23:04.766Z,10.73
2022-10-02T23:25:41.469Z,10.68
2022-10-02T23:28:26.711Z,10.65
2022-10-02T23:31:11.350Z,10.60
2022-10-02T23:33:56.392Z,10.55
2022-10-02T23:36:26.312Z,10.49
2022-10-02T23:39:01.971Z,10.44
2022-10-02T23:41:46.874Z,10.42
2022-10-02T23:44:26.863Z,10.42
2022-10-02T23:47:06.100Z,10.42
2022-10-02T23:49:39.102Z,10.41
2022-10-02T23:52:46.376Z,10.39
2022-10-02T23:55:32.037Z,10.39
2022-10-02T23:58:20.298Z,10.35
